createdAt,value
2022-10-05T00:00:59.387Z,101129.11
2022-10-05T00:02:17.040Z,101129.11
2022-10-05T00:03:33.548Z,101127.30
2022-10-05T00:04:49.993Z,101126.91
2022-10-05T00:06:06.373Z,101122.00
2022-10-05T00:07:22.774Z,101126.69
2022-10-05T00:08:39.490Z,101124.49
2022-10-05T00:09:55.889Z,101124.12
2022-10-05T00:11:12.262Z,101120.94
2022-10-05T00:12:28.660Z,101120.06
2022-10-05T00:13:45.075Z,101117.16
2022-10-05T00:15:01.781Z,101117.19
2022-10-05T00:16:18.210Z,101118.05
2022-10-05T00:17:34.604Z,101110.53
2022-10-05T00:18:50.973Z,101114.91
2022-10-05T00:20:07.384Z,101108.53
2022-10-05T00:21:24.036Z,101113.59
2022-10-05T00:22:40.433Z,101106.97
2022-10-05T00:23:56.837Z,101109.50
2022-10-05T00:25:13.262Z,101109.89
2022-10-05T00:26:29.635Z,101108.22
2022-10-05T00:27:46.295Z,101108.92
2022-10-05T00:29:02.673Z,101103.56
2022-10-05T00:30:19.097Z,101109.86
2022-10-05T00:31:35.530Z,101106.17
2022-10-05T00:32:56.033Z,101108.95
2022-10-05T00:34:13.118Z,101109.18
2022-10-05T00:35:29.632Z,101104.32
2022-10-05T00:36:46.250Z,101098.47
2022-10-05T00:38:02.747Z,101096.77
2022-10-05T00:39:19.389Z,101097.09
2022-10-05T00:40:35.838Z,101087.56
2022-10-05T00:41:52.214Z,101095.70
2022-10-05T00:43:08.630Z,101092.89
2022-10-05T00:44:25.009Z,101091.06
2022-10-05T00:45:41.714Z,101092.36
2022-10-05T00:46:58.081Z,101090.74
2022-10-05T00:48:14.519Z,101094.78
2022-10-05T00:49:30.895Z,101091.33
2022-10-05T00:50:47.286Z,101100.43
2022-10-05T00:52:03.942Z,101095.20
2022-10-05T00:53:20.412Z,101097.74
2022-10-05T00:54:36.793Z,101094.09
2022-10-05T00:55:53.183Z,101096.50
2022-10-05T00:57:09.553Z,101097.28
2022-10-05T00:58:26.293Z,101098.48
2022-10-05T00:59:42.664Z,101096.18
2022-10-05T01:00:59.130Z,101093.24
2022-10-05T01:02:16.947Z,101093.22
2022-10-05T01:03:33.385Z,101091.55
2022-10-05T01:04:50.026Z,101089.47
2022-10-05T01:07:49.111Z,101091.71
2022-10-05T01:09:05.538Z,101091.58
2022-10-05T01:10:23.879Z,101087.33
2022-10-05T01:11:40.518Z,101087.97
2022-10-05T01:12:56.912Z,101088.32
2022-10-05T01:14:13.320Z,101081.35
2022-10-05T01:15:29.712Z,101086.68
2022-10-05T01:16:46.437Z,101087.67
2022-10-05T01:18:03.284Z,101085.62
2022-10-05T01:19:19.663Z,101083.23
2022-10-05T01:20:36.045Z,101080.08
2022-10-05T01:21:53.921Z,101080.11
2022-10-05T01:23:10.300Z,101075.21
2022-10-05T01:24:26.942Z,101078.65
2022-10-05T01:25:43.370Z,101081.83
2022-10-05T01:26:59.732Z,101077.12
2022-10-05T01:28:16.168Z,101072.16
2022-10-05T01:29:32.587Z,101069.81
2022-10-05T01:30:49.332Z,101067.74
2022-10-05T01:32:05.703Z,101065.14
2022-10-05T01:33:22.106Z,101061.26
2022-10-05T01:34:38.485Z,101061.89
2022-10-05T01:35:54.914Z,101064.98
2022-10-05T01:37:11.555Z,101062.11
2022-10-05T01:38:27.945Z,101063.77
2022-10-05T01:39:44.329Z,101062.59
2022-10-05T01:41:00.767Z,101061.84
2022-10-05T01:42:17.216Z,101059.11
2022-10-05T01:43:33.890Z,101064.08
2022-10-05T01:44:50.279Z,101064.18
2022-10-05T01:46:06.842Z,101065.46
2022-10-05T01:47:23.198Z,101065.77
2022-10-05T01:48:39.588Z,101063.74
2022-10-05T01:49:56.242Z,101061.82
2022-10-05T01:51:12.650Z,101059.70
2022-10-05T01:52:29.019Z,101057.09
2022-10-05T01:53:46.863Z,101056.61
2022-10-05T01:55:03.237Z,101053.84
2022-10-05T01:56:19.965Z,101054.63
2022-10-05T01:57:37.485Z,101050.63
2022-10-05T01:58:53.873Z,101047.55
2022-10-05T02:00:10.231Z,101052.33
2022-10-05T02:01:26.714Z,101047.31
2022-10-05T02:02:43.450Z,101044.78
2022-10-05T02:03:59.875Z,101044.59
2022-10-05T02:05:17.709Z,101039.55
2022-10-05T02:06:34.125Z,101045.41
2022-10-05T02:07:50.592Z,101039.56
2022-10-05T02:09:07.245Z,101045.26
2022-10-05T02:10:23.624Z,101040.63
2022-10-05T02:11:41.455Z,101040.63
2022-10-05T02:12:58.005Z,101037.81
2022-10-05T02:14:14.395Z,101033.34
2022-10-05T02:15:31.065Z,101031.86
2022-10-05T02:16:47.737Z,101034.58
2022-10-05T02:18:04.366Z,101026.83
2022-10-05T02:19:22.214Z,101030.09
2022-10-05T02:20:38.586Z,101022.05
2022-10-05T02:21:55.276Z,101021.97
2022-10-05T02:23:11.808Z,101015.89
2022-10-05T02:24:28.206Z,101020.84
2022-10-05T02:25:44.569Z,101016.63
2022-10-05T02:27:00.967Z,101020.34
2022-10-05T02:28:18.625Z,101020.59
2022-10-05T02:29:36.510Z,101020.31
2022-10-05T02:30:54.348Z,101027.52
2022-10-05T02:32:10.765Z,101025.39
2022-10-05T02:33:27.301Z,101027.89
2022-10-05T02:34:43.981Z,101028.41
2022-10-05T02:36:00.351Z,101033.40
2022-10-05T02:37:18.191Z,101033.34
2022-10-05T02:38:34.600Z,101036.02
2022-10-05T02:39:50.991Z,101032.20
2022-10-05T02:41:07.632Z,101037.45
2022-10-05T02:42:24.053Z,101039.20
2022-10-05T02:43:40.431Z,101032.95
2022-10-05T02:44:56.825Z,101035.95
2022-10-05T02:46:13.309Z,101032.97
2022-10-05T02:47:29.941Z,101034.52
2022-10-05T02:48:47.276Z,101032.27
2022-10-05T02:50:03.646Z,101038.66
2022-10-05T02:51:20.115Z,101035.49
2022-10-05T02:52:36.524Z,101036.59
2022-10-05T02:53:53.155Z,101035.98
2022-10-05T02:55:09.518Z,101035.66
2022-10-05T02:56:25.936Z,101032.07
2022-10-05T02:57:42.296Z,101028.72
2022-10-05T02:58:58.688Z,101022.88
2022-10-05T03:00:15.062Z,101029.28
2022-10-05T03:01:31.626Z,101024.41
2022-10-05T03:02:48.019Z,101020.45
2022-10-05T03:04:04.405Z,101020.45
2022-10-05T03:05:20.760Z,101019.02
2022-10-05T03:06:37.529Z,101019.68
2022-10-05T03:07:53.900Z,101016.36
2022-10-05T03:09:10.279Z,101014.58
2022-10-05T03:10:26.738Z,101013.22
2022-10-05T03:11:43.111Z,101014.09
2022-10-05T03:13:00.721Z,101007.26
2022-10-05T03:14:17.102Z,101004.02
2022-10-05T03:15:33.609Z,101000.14
2022-10-05T03:16:49.995Z,101003.03
2022-10-05T03:18:06.365Z,101000.08
2022-10-05T03:19:23.043Z,100998.95
2022-10-05T03:20:39.579Z,100993.10
2022-10-05T03:21:55.963Z,100992.70
2022-10-05T03:23:12.353Z,100989.02
2022-10-05T03:24:28.775Z,100988.47
2022-10-05T03:25:45.419Z,100986.05
2022-10-05T03:27:01.825Z,100984.56
2022-10-05T03:28:18.248Z,100981.01
2022-10-05T03:29:34.646Z,100978.06
2022-10-05T03:30:51.043Z,100974.52
2022-10-05T03:32:07.726Z,100979.27
2022-10-05T03:33:24.107Z,100974.42
2022-10-05T03:34:40.545Z,100974.18
2022-10-05T03:35:56.907Z,100978.53
2022-10-05T03:37:13.306Z,100973.89
2022-10-05T03:38:29.947Z,100968.80
2022-10-05T03:39:47.828Z,100971.27
2022-10-05T03:41:05.659Z,100962.23
2022-10-05T03:42:22.061Z,100964.53
2022-10-05T03:43:38.449Z,100964.56
2022-10-05T03:44:55.150Z,100963.41
2022-10-05T03:46:11.592Z,100964.05
2022-10-05T03:47:28.930Z,100968.78
2022-10-05T03:48:45.340Z,100971.17
2022-10-05T03:50:03.231Z,100966.62
2022-10-05T03:51:19.892Z,100972.14
2022-10-05T03:52:36.282Z,100970.55
2022-10-05T03:53:52.740Z,100971.36
2022-10-05T03:55:10.614Z,100969.78
2022-10-05T03:56:26.999Z,100966.28
2022-10-05T03:57:43.665Z,100963.12
2022-10-05T03:59:00.053Z,100964.94
2022-10-05T04:00:17.926Z,100963.52
2022-10-05T04:01:34.316Z,100959.08
2022-10-05T04:02:50.814Z,100966.52
2022-10-05T04:04:07.485Z,100959.00
2022-10-05T04:05:23.887Z,100950.97
2022-10-05T04:06:41.746Z,100950.14
2022-10-05T04:07:58.138Z,100949.33
2022-10-05T04:09:15.998Z,100948.75
2022-10-05T04:10:33.837Z,100950.50
2022-10-05T04:11:50.256Z,100949.14
2022-10-05T04:13:08.111Z,100946.25
2022-10-05T04:14:25.987Z,100946.67
2022-10-05T04:15:42.745Z,100948.50
2022-10-05T04:17:00.593Z,100943.48
2022-10-05T04:18:16.993Z,100945.06
2022-10-05T04:19:34.849Z,100943.16
2022-10-05T04:20:52.691Z,100938.84
2022-10-05T04:22:09.350Z,100943.20
2022-10-05T04:23:25.750Z,100937.22
2022-10-05T04:24:43.662Z,100943.64
2022-10-05T04:26:01.518Z,100940.00
2022-10-05T04:27:19.345Z,100937.35
2022-10-05T04:28:37.557Z,100932.95
2022-10-05T04:29:55.419Z,100933.89
2022-10-05T04:31:13.302Z,100928.72
2022-10-05T04:32:31.131Z,100931.73
2022-10-05T04:33:49.023Z,100930.71
2022-10-05T04:35:07.123Z,100929.62
2022-10-05T04:36:25.046Z,100928.71
2022-10-05T04:37:46.498Z,100927.75
2022-10-05T04:39:04.597Z,100925.36
2022-10-05T04:40:21.960Z,100929.52
2022-10-05T04:41:38.694Z,100932.28
2022-10-05T04:42:56.564Z,100935.71
2022-10-05T04:44:14.505Z,100929.41
2022-10-05T04:45:32.448Z,100930.67
2022-10-05T04:46:50.806Z,100924.19
2022-10-05T04:48:08.881Z,100927.75
2022-10-05T04:49:26.397Z,100927.66
2022-10-05T04:50:44.417Z,100928.72
2022-10-05T04:52:02.473Z,100931.47
2022-10-05T04:55:11.651Z,100941.52
2022-10-05T04:56:29.575Z,100944.48
2022-10-05T04:57:46.171Z,100942.51
2022-10-05T04:59:04.026Z,100939.34
2022-10-05T05:00:21.911Z,100944.61
2022-10-05T05:01:44.633Z,100946.42
2022-10-05T05:03:01.094Z,100945.30
2022-10-05T05:04:19.489Z,100945.80
2022-10-05T05:05:48.380Z,100950.02
2022-10-05T05:07:00.023Z,100954.31
2022-10-05T05:08:18.168Z,100953.68
2022-10-05T05:09:36.200Z,100952.69
2022-10-05T05:10:54.047Z,100944.84
2022-10-05T05:12:11.940Z,100953.34
2022-10-05T05:13:29.421Z,100950.00
2022-10-05T05:14:47.416Z,100951.58
2022-10-05T05:16:05.460Z,100946.58
2022-10-05T05:17:23.371Z,100952.80
2022-10-05T05:18:41.308Z,100949.41
2022-10-05T05:19:57.999Z,100953.67
2022-10-05T05:21:14.450Z,100952.62
2022-10-05T05:22:32.331Z,100955.78
2022-10-05T05:23:50.262Z,100951.81
2022-10-05T05:25:08.175Z,100951.56
2022-10-05T05:26:25.428Z,100956.55
2022-10-05T05:27:43.271Z,100957.19
2022-10-05T05:29:01.618Z,100957.92
2022-10-05T05:30:19.462Z,100959.61
2022-10-05T05:31:38.024Z,100957.22
2022-10-05T05:32:55.653Z,100951.64
2022-10-05T05:34:20.611Z,100956.41
2022-10-05T05:35:38.665Z,100958.61
2022-10-05T05:36:56.571Z,100956.80
2022-10-05T05:38:14.499Z,100952.60
2022-10-05T05:39:32.725Z,100960.43
2022-10-05T05:40:49.236Z,100955.84
2022-10-05T05:42:05.920Z,100959.41
2022-10-05T05:43:23.830Z,100959.80
2022-10-05T05:44:41.882Z,100960.45
2022-10-05T05:46:02.010Z,100959.18
2022-10-05T05:47:22.097Z,100962.18
2022-10-05T05:48:40.281Z,100961.80
2022-10-05T05:49:57.071Z,100963.08
2022-10-05T05:51:15.128Z,100957.55
2022-10-05T05:52:32.932Z,100956.56
2022-10-05T05:53:49.438Z,100956.91
2022-10-05T05:55:05.971Z,100961.08
2022-10-05T05:56:26.809Z,100948.74
2022-10-05T05:57:44.700Z,100955.06
2022-10-05T05:59:03.130Z,100958.06
2022-10-05T06:00:23.559Z,100955.53
2022-10-05T06:01:44.266Z,100958.78
2022-10-05T06:03:03.375Z,100956.28
2022-10-05T06:04:22.312Z,100959.57
2022-10-05T06:05:40.394Z,100958.97
2022-10-05T06:06:57.773Z,100960.28
2022-10-05T06:08:15.399Z,100959.18
2022-10-05T06:09:33.939Z,100960.97
2022-10-05T06:10:52.508Z,100965.41
2022-10-05T06:12:12.097Z,100962.20
2022-10-05T06:13:30.014Z,100960.67
2022-10-05T06:14:48.674Z,100957.81
2022-10-05T06:16:06.962Z,100956.70
2022-10-05T06:17:25.251Z,100953.20
2022-10-05T06:18:43.245Z,100961.48
2022-10-05T06:20:05.580Z,100959.27
2022-10-05T06:21:26.025Z,100958.13
2022-10-05T06:22:45.799Z,100959.10
2022-10-05T06:24:06.838Z,100963.45
2022-10-05T06:25:24.741Z,100963.69
2022-10-05T06:26:43.908Z,100962.72
2022-10-05T06:28:02.016Z,100959.84
2022-10-05T06:29:18.550Z,100964.09
2022-10-05T06:30:36.790Z,100965.36
2022-10-05T06:31:59.030Z,100966.17
2022-10-05T06:35:13.318Z,100967.52
2022-10-05T06:36:32.096Z,100958.55
2022-10-05T06:37:49.409Z,100970.12
2022-10-05T06:39:08.061Z,100969.78
2022-10-05T06:40:25.398Z,100963.55
2022-10-05T06:41:43.316Z,100968.41
2022-10-05T06:43:01.190Z,100970.37
2022-10-05T06:44:17.612Z,100967.54
2022-10-05T06:45:35.551Z,100976.53
2022-10-05T06:46:52.903Z,100967.47
2022-10-05T06:48:11.261Z,100969.30
2022-10-05T06:49:29.115Z,100977.12
2022-10-05T06:50:46.943Z,100972.64
2022-10-05T06:52:04.281Z,100971.06
2022-10-05T06:53:22.757Z,100969.02
2022-10-05T06:54:41.126Z,100970.19
2022-10-05T06:55:59.785Z,100968.98
2022-10-05T06:57:18.123Z,100969.76
2022-10-05T06:58:35.557Z,100953.17
2022-10-05T06:59:53.977Z,100973.29
2022-10-05T07:01:11.473Z,100975.63
2022-10-05T07:02:30.152Z,100972.53
2022-10-05T07:03:49.637Z,100975.52
2022-10-05T07:05:08.487Z,100974.60
2022-10-05T07:06:26.318Z,100970.79
2022-10-05T07:07:45.368Z,100971.13
2022-10-05T07:09:02.975Z,100967.51
2022-10-05T07:10:21.308Z,100969.83
2022-10-05T07:11:39.142Z,100965.81
2022-10-05T07:12:57.509Z,100969.00
2022-10-05T07:14:15.381Z,100967.59
2022-10-05T07:15:34.120Z,100965.20
2022-10-05T07:16:53.038Z,100967.61
2022-10-05T07:18:10.911Z,100964.49
2022-10-05T07:19:28.861Z,100959.80
2022-10-05T07:20:49.378Z,100967.41
2022-10-05T07:23:32.300Z,100964.09
2022-10-05T07:24:50.142Z,100960.02
2022-10-05T07:26:09.002Z,100963.44
2022-10-05T07:27:27.624Z,100969.47
2022-10-05T07:28:49.883Z,100969.30
2022-10-05T07:30:07.767Z,100966.93
2022-10-05T07:31:25.146Z,100962.03
2022-10-05T07:32:42.478Z,100966.29
2022-10-05T07:34:00.214Z,100961.86
2022-10-05T07:35:18.573Z,100958.86
2022-10-05T07:36:37.006Z,100969.57
2022-10-05T07:37:55.836Z,100965.06
2022-10-05T07:39:14.409Z,100961.66
2022-10-05T07:40:32.739Z,100966.16
2022-10-05T07:41:50.606Z,100971.47
2022-10-05T07:43:08.498Z,100963.42
2022-10-05T07:44:29.760Z,100967.28
2022-10-05T07:45:47.139Z,100969.78
2022-10-05T07:47:05.134Z,100968.56
2022-10-05T07:48:23.893Z,100971.81
2022-10-05T07:49:41.889Z,100970.91
2022-10-05T07:50:59.364Z,100972.62
2022-10-05T07:52:17.262Z,100977.19
2022-10-05T07:53:35.664Z,100973.59
2022-10-05T07:54:54.091Z,100978.98
2022-10-05T07:56:12.539Z,100978.67
2022-10-05T07:57:29.900Z,100980.77
2022-10-05T07:58:47.834Z,100978.69
2022-10-05T08:00:06.366Z,100985.27
2022-10-05T08:01:24.897Z,100983.80
2022-10-05T08:02:43.380Z,100979.12
2022-10-05T08:04:00.042Z,100980.59
2022-10-05T08:05:18.936Z,100980.08
2022-10-05T08:06:36.628Z,100983.61
2022-10-05T08:07:54.079Z,100980.95
2022-10-05T08:09:11.989Z,100984.96
2022-10-05T08:10:30.340Z,100981.40
2022-10-05T08:11:49.498Z,100985.32
2022-10-05T08:13:11.942Z,100985.52
2022-10-05T08:14:28.813Z,100983.14
2022-10-05T08:15:47.079Z,100988.81
2022-10-05T08:17:04.931Z,100989.60
2022-10-05T08:18:23.576Z,100988.06
2022-10-05T08:19:42.031Z,101000.08
2022-10-05T08:20:59.942Z,100990.36
2022-10-05T08:22:16.491Z,100992.50
2022-10-05T08:23:36.295Z,100989.37
2022-10-05T08:24:54.258Z,100999.25
2022-10-05T08:26:12.138Z,100991.86
2022-10-05T08:27:29.533Z,100993.25
2022-10-05T08:28:47.443Z,100996.15
2022-10-05T08:30:07.485Z,100996.98
2022-10-05T08:31:25.387Z,100999.56
2022-10-05T08:32:43.228Z,100998.80
2022-10-05T08:34:01.757Z,100999.64
2022-10-05T08:35:19.666Z,100998.61
2022-10-05T08:36:37.540Z,100997.62
2022-10-05T08:37:55.991Z,100996.19
2022-10-05T08:39:14.002Z,100993.92
2022-10-05T08:40:31.968Z,100994.32
2022-10-05T08:41:50.319Z,100996.90
2022-10-05T08:43:07.791Z,101003.44
2022-10-05T08:44:26.452Z,100998.09
2022-10-05T08:45:49.497Z,101002.29
2022-10-05T08:47:07.396Z,101001.89
2022-10-05T08:48:24.841Z,100991.66
2022-10-05T08:49:43.334Z,100994.20
2022-10-05T08:51:04.107Z,100990.50
2022-10-05T08:52:22.684Z,100995.58
2022-10-05T08:53:40.897Z,100991.44
2022-10-05T08:55:00.089Z,100994.12
2022-10-05T08:56:27.774Z,100990.83
2022-10-05T08:57:46.099Z,100992.09
2022-10-05T08:59:04.245Z,100988.16
2022-10-05T09:00:22.508Z,100989.03
2022-10-05T09:01:42.522Z,100981.61
2022-10-05T09:03:00.843Z,100982.55
2022-10-05T09:06:13.838Z,100983.59
2022-10-05T09:07:36.558Z,100991.68
2022-10-05T09:08:56.242Z,100984.84
2022-10-05T09:10:14.326Z,100995.99
2022-10-05T09:13:28.247Z,100987.06
2022-10-05T09:14:52.617Z,100983.48
2022-10-05T09:16:08.550Z,100985.53
2022-10-05T09:17:26.672Z,100983.94
2022-10-05T09:18:45.369Z,100981.75
2022-10-05T09:20:05.278Z,100984.80
2022-10-05T09:23:17.098Z,100975.42
2022-10-05T09:24:35.848Z,100983.38
2022-10-05T09:25:53.824Z,100975.59
2022-10-05T09:27:15.561Z,100974.34
2022-10-05T09:28:34.255Z,100970.59
2022-10-05T09:29:53.220Z,100969.83
2022-10-05T09:31:11.421Z,100970.50
2022-10-05T09:32:28.962Z,100970.03
2022-10-05T09:35:37.191Z,100968.97
2022-10-05T09:36:55.891Z,100969.18
2022-10-05T09:38:15.396Z,100970.44
2022-10-05T09:41:25.743Z,100961.85
2022-10-05T09:42:44.230Z,100957.68
2022-10-05T09:44:05.304Z,100962.62
2022-10-05T09:45:25.756Z,100959.80
2022-10-05T09:46:44.479Z,100960.54
2022-10-05T09:48:03.802Z,100959.94
2022-10-05T09:49:20.412Z,100958.61
2022-10-05T09:50:40.226Z,100954.38
2022-10-05T09:51:57.585Z,100952.66
2022-10-05T09:53:15.776Z,100957.23
2022-10-05T09:54:32.223Z,100949.70
2022-10-05T09:55:49.750Z,100959.06
2022-10-05T09:57:07.084Z,100951.80
2022-10-05T09:58:24.556Z,100949.36
2022-10-05T09:59:43.005Z,100948.86
2022-10-05T10:01:09.178Z,100948.94
2022-10-05T10:02:23.771Z,100947.00
2022-10-05T10:03:42.910Z,100942.61
2022-10-05T10:05:00.917Z,100937.45
2022-10-05T10:06:21.491Z,100943.05
2022-10-05T10:07:40.339Z,100943.89
2022-10-05T10:08:59.950Z,100944.73
2022-10-05T10:10:18.079Z,100940.79
2022-10-05T10:11:40.553Z,100939.39
2022-10-05T10:12:59.472Z,100942.52
2022-10-05T10:14:17.930Z,100935.36
2022-10-05T10:17:26.321Z,100935.35
2022-10-05T10:18:43.869Z,100922.86
2022-10-05T10:20:01.212Z,100931.44
2022-10-05T10:21:19.094Z,100929.99
2022-10-05T10:22:40.918Z,100928.88
2022-10-05T10:23:59.668Z,100931.11
2022-10-05T10:25:17.043Z,100918.00
2022-10-05T10:26:34.907Z,100925.86
2022-10-05T10:27:52.634Z,100926.08
2022-10-05T10:29:10.468Z,100930.09
2022-10-05T10:30:30.976Z,100930.66
2022-10-05T10:31:49.713Z,100931.44
2022-10-05T10:33:07.286Z,100929.53
2022-10-05T10:34:26.571Z,100935.41
2022-10-05T10:35:44.478Z,100926.69
2022-10-05T10:37:02.310Z,100935.10
2022-10-05T10:38:19.671Z,100929.58
2022-10-05T10:39:37.229Z,100929.61
2022-10-05T10:40:54.852Z,100927.16
2022-10-05T10:42:12.710Z,100933.64
2022-10-05T10:43:30.650Z,100931.72
2022-10-05T10:44:48.606Z,100933.88
2022-10-05T10:46:06.506Z,100931.47
2022-10-05T10:47:24.085Z,100923.33
2022-10-05T10:48:42.531Z,100932.02
2022-10-05T10:50:00.372Z,100930.30
2022-10-05T10:51:17.972Z,100929.06
2022-10-05T10:52:35.695Z,100923.26
2022-10-05T10:53:53.813Z,100919.38
2022-10-05T10:55:11.720Z,100926.20
2022-10-05T10:56:29.550Z,100924.60
2022-10-05T10:57:47.376Z,100922.78
2022-10-05T10:59:05.317Z,100921.61
2022-10-05T11:00:22.938Z,100914.72
2022-10-05T11:01:41.148Z,100928.30
2022-10-05T11:02:59.126Z,100931.44
2022-10-05T11:04:16.969Z,100926.45
2022-10-05T11:05:34.788Z,100925.30
2022-10-05T11:06:53.381Z,100922.00
2022-10-05T11:08:11.210Z,100927.51
2022-10-05T11:09:29.162Z,100928.48
2022-10-05T11:10:47.055Z,100922.34
2022-10-05T11:12:04.932Z,100920.83
2022-10-05T11:13:22.763Z,100929.92
2022-10-05T11:14:40.671Z,100925.31
2022-10-05T11:15:58.970Z,100917.02
2022-10-05T11:17:16.832Z,100919.06
2022-10-05T11:18:35.005Z,100912.62
2022-10-05T11:20:03.723Z,100911.62
2022-10-05T11:21:15.588Z,100912.80
2022-10-05T11:22:33.415Z,100909.88
2022-10-05T11:23:51.860Z,100916.10
2022-10-05T11:25:10.520Z,100911.72
2022-10-05T11:26:28.414Z,100909.66
2022-10-05T11:27:45.770Z,100903.09
2022-10-05T11:29:04.685Z,100903.97
2022-10-05T11:30:23.022Z,100904.22
2022-10-05T11:31:40.709Z,100898.81
2022-10-05T11:32:58.519Z,100890.72
2022-10-05T11:34:16.446Z,100889.81
2022-10-05T11:35:35.468Z,100884.33
2022-10-05T11:36:52.890Z,100889.94
2022-10-05T11:38:11.952Z,100882.40
2022-10-05T11:39:30.317Z,100888.27
2022-10-05T11:40:49.062Z,100888.00
2022-10-05T11:42:06.942Z,100879.60
2022-10-05T11:43:25.096Z,100880.73
2022-10-05T11:44:42.771Z,100876.17
2022-10-05T11:46:01.204Z,100872.52
2022-10-05T11:47:19.569Z,100870.64
2022-10-05T11:48:37.565Z,100858.97
2022-10-05T11:49:55.431Z,100859.80
2022-10-05T11:51:13.609Z,100848.55
2022-10-05T11:52:31.467Z,100853.34
2022-10-05T11:53:48.837Z,100845.10
2022-10-05T11:55:11.814Z,100846.19
2022-10-05T11:57:45.978Z,100836.72
2022-10-05T11:59:03.869Z,100834.53
2022-10-05T12:00:22.199Z,100826.17
2022-10-05T12:01:40.073Z,100820.98
2022-10-05T12:02:57.626Z,100834.14
2022-10-05T12:04:16.094Z,100817.17
2022-10-05T12:05:34.251Z,100818.45
2022-10-05T12:06:52.789Z,100809.17
2022-10-05T12:08:28.543Z,100816.58
2022-10-05T12:09:48.914Z,100810.47
2022-10-05T12:11:13.973Z,100806.48
2022-10-05T12:12:31.110Z,100799.75
2022-10-05T12:13:47.924Z,100791.62
2022-10-05T12:15:06.964Z,100790.80
2022-10-05T12:16:26.251Z,100788.09
2022-10-05T12:17:49.610Z,100784.89
2022-10-05T12:19:09.770Z,100777.99
2022-10-05T12:20:30.341Z,100766.09
2022-10-05T12:21:48.370Z,100780.93
2022-10-05T12:23:06.302Z,100768.30
2022-10-05T12:24:26.788Z,100768.98
2022-10-05T12:25:44.843Z,100772.39
2022-10-05T12:27:02.971Z,100760.70
2022-10-05T12:28:22.120Z,100772.59
2022-10-05T12:29:39.945Z,100779.08
2022-10-05T12:30:58.089Z,100774.88
2022-10-05T12:32:16.497Z,100772.23
2022-10-05T12:33:35.060Z,100767.06
2022-10-05T12:34:52.965Z,100766.91
2022-10-05T12:36:10.374Z,100762.33
2022-10-05T12:37:29.262Z,100757.66
2022-10-05T12:38:46.701Z,100752.31
2022-10-05T12:40:05.425Z,100750.97
2022-10-05T12:41:23.296Z,100747.22
2022-10-05T12:42:42.034Z,100746.50
2022-10-05T12:44:00.055Z,100742.22
2022-10-05T12:45:17.599Z,100740.82
2022-10-05T12:46:35.811Z,100734.92
2022-10-05T12:47:55.246Z,100734.09
2022-10-05T12:49:12.117Z,100729.23
2022-10-05T12:50:32.450Z,100730.02
2022-10-05T12:51:51.243Z,100718.22
2022-10-05T12:53:09.099Z,100718.80
2022-10-05T12:54:25.721Z,100712.03
2022-10-05T12:55:43.619Z,100714.02
2022-10-05T12:57:01.718Z,100709.59
2022-10-05T12:58:20.038Z,100708.20
2022-10-05T12:59:38.300Z,100703.16
2022-10-05T13:00:55.896Z,100709.37
2022-10-05T13:02:13.304Z,100703.88
2022-10-05T13:03:31.683Z,100693.67
2022-10-05T13:04:49.239Z,100695.52
2022-10-05T13:06:07.116Z,100694.08
2022-10-05T13:07:25.128Z,100690.49
2022-10-05T13:08:43.037Z,100685.98
2022-10-05T13:10:01.928Z,100685.14
2022-10-05T13:11:19.531Z,100679.64
2022-10-05T13:12:37.554Z,100679.97
2022-10-05T13:13:55.381Z,100671.88
2022-10-05T13:15:14.630Z,100677.03
2022-10-05T13:16:33.539Z,100676.18
2022-10-05T13:17:51.191Z,100677.09
2022-10-05T13:19:09.246Z,100671.56
2022-10-05T13:20:27.111Z,100664.80
2022-10-05T13:21:46.603Z,100663.97
2022-10-05T13:23:04.595Z,100663.72
2022-10-05T13:24:23.977Z,100653.49
2022-10-05T13:25:41.864Z,100657.02
2022-10-05T13:26:59.737Z,100654.53
2022-10-05T13:28:17.238Z,100648.08
2022-10-05T13:29:36.465Z,100647.91
2022-10-05T13:30:54.372Z,100648.87
2022-10-05T13:32:11.965Z,100642.09
2022-10-05T13:33:29.407Z,100646.28
2022-10-05T13:34:46.100Z,100640.52
2022-10-05T13:36:04.498Z,100639.75
2022-10-05T13:37:23.350Z,100646.08
2022-10-05T13:38:41.241Z,100641.28
2022-10-05T13:39:59.191Z,100642.80
2022-10-05T13:41:18.092Z,100639.88
2022-10-05T13:42:36.608Z,100646.97
2022-10-05T13:43:54.990Z,100637.84
2022-10-05T13:45:12.914Z,100637.37
2022-10-05T13:46:30.821Z,100641.46
2022-10-05T13:47:48.627Z,100634.17
2022-10-05T13:49:06.501Z,100636.77
2022-10-05T13:50:24.381Z,100635.88
2022-10-05T13:51:42.644Z,100637.36
2022-10-05T13:53:00.493Z,100634.81
2022-10-05T13:54:18.371Z,100638.68
2022-10-05T13:55:36.353Z,100631.12
2022-10-05T13:56:54.234Z,100626.67
2022-10-05T13:58:12.097Z,100630.16
2022-10-05T13:59:29.988Z,100623.23
2022-10-05T14:00:48.137Z,100623.12
2022-10-05T14:02:06.064Z,100628.38
2022-10-05T14:03:23.917Z,100617.44
2022-10-05T14:04:41.739Z,100620.03
2022-10-05T14:05:59.600Z,100620.34
2022-10-05T14:07:17.730Z,100614.84
2022-10-05T14:08:35.563Z,100611.72
2022-10-05T14:09:53.592Z,100607.88
2022-10-05T14:11:11.852Z,100614.56
2022-10-05T14:12:29.771Z,100616.97
2022-10-05T14:13:46.977Z,100611.00
2022-10-05T14:15:04.360Z,100611.12
2022-10-05T14:16:21.874Z,100604.62
2022-10-05T14:17:39.307Z,100611.86
2022-10-05T14:18:58.588Z,100610.41
2022-10-05T14:20:16.778Z,100602.64
2022-10-05T14:21:39.167Z,100604.80
2022-10-05T14:22:57.056Z,100600.80
2022-10-05T14:24:20.217Z,100602.22
2022-10-05T14:25:36.396Z,100599.20
2022-10-05T14:26:54.622Z,100594.97
2022-10-05T14:28:13.096Z,100600.17
2022-10-05T14:29:29.482Z,100598.11
2022-10-05T14:30:53.419Z,100600.74
2022-10-05T14:32:10.951Z,100598.75
2022-10-05T14:33:28.527Z,100600.23
2022-10-05T14:34:46.907Z,100596.70
2022-10-05T14:36:04.432Z,100597.44
2022-10-05T14:37:22.368Z,100593.75
2022-10-05T14:38:40.227Z,100594.06
2022-10-05T14:39:58.143Z,100593.14
2022-10-05T14:41:14.841Z,100593.02
2022-10-05T14:42:33.544Z,100587.20
2022-10-05T14:43:51.375Z,100591.61
2022-10-05T14:45:09.676Z,100593.50
2022-10-05T14:46:29.117Z,100590.48
2022-10-05T14:47:47.068Z,100589.16
2022-10-05T14:49:04.942Z,100585.15
2022-10-05T14:50:23.332Z,100585.83
2022-10-05T14:51:41.534Z,100584.51
2022-10-05T14:52:59.565Z,100586.34
2022-10-05T14:54:17.455Z,100584.70
2022-10-05T14:55:35.347Z,100578.31
2022-10-05T14:56:52.855Z,100581.97
2022-10-05T14:58:10.735Z,100583.34
2022-10-05T14:59:27.167Z,100589.69
2022-10-05T15:00:48.765Z,100595.08
2022-10-05T15:02:06.853Z,100588.91
2022-10-05T15:03:24.746Z,100594.62
2022-10-05T15:04:42.639Z,100591.08
2022-10-05T15:06:00.811Z,100595.86
2022-10-05T15:07:18.214Z,100591.20
2022-10-05T15:08:36.128Z,100592.59